Parkland, Washington
Current Conditions -  °F | °C
As of 11:58 PM on Saturday 25 Oct 2014 (Local Time) from KTCM Reporting Station
Broken Clouds Broken Clouds  
Wind Chill: 51°   Ceiling: 6000
Heat Index: 51°   Visibility: 10mi
Dew Point: 48°   Wind: 13mph
Humidity: 89%   Direction: 210°SSW
Pressure: 29.79"   Gusts: NA
Location:  47.16°N, 122.43°W
Report Text: KTCM 260658Z AUTO 21011KT 10SM FEW032 BKN060 11/09 A2979 RMK AO2 RAE0612 SLP092 P0001 T01050087 $
Loading
Personal Weather Stations






























Interactive Weather Map
Tropical Storm Tracking
New forecast layout! Learn more

10-Day Weather Forecast

Advertisements
Track Severe Weather on mobile